sensor_id;sensor_type;location;lat;lon;timestamp;temperature;humidity
79467;SHT30;68933;49.726;9.226;2023-09-19T00:01:50;18.3;72
79467;SHT30;68933;49.726;9.226;2023-09-19T00:04:03;18.2;74
79467;SHT30;68933;49.726;9.226;2023-09-19T00:06:16;18.2;74
79467;SHT30;68933;49.726;9.226;2023-09-19T00:08:29;18.1;74
79467;SHT30;68933;49.726;9.226;2023-09-19T00:10:42;18.1;74
79467;SHT30;68933;49.726;9.226;2023-09-19T00:12:55;18.1;74
79467;SHT30;68933;49.726;9.226;2023-09-19T00:15:09;18.1;74
79467;SHT30;68933;49.726;9.226;2023-09-19T00:17:21;18.1;74
79467;SHT30;68933;49.726;9.226;2023-09-19T00:19:35;18.1;74
79467;SHT30;68933;49.726;9.226;2023-09-19T00:21:47;18.1;74
79467;SHT30;68933;49.726;9.226;2023-09-19T00:24:00;18.1;74
79467;SHT30;68933;49.726;9.226;2023-09-19T00:26:13;18.1;74
79467;SHT30;68933;49.726;9.226;2023-09-19T00:28:26;18.1;74
79467;SHT30;68933;49.726;9.226;2023-09-19T00:30:42;18.1;74
79467;SHT30;68933;49.726;9.226;2023-09-19T00:32:52;18.1;74
79467;SHT30;68933;49.726;9.226;2023-09-19T00:35:05;18.1;74
79467;SHT30;68933;49.726;9.226;2023-09-19T00:37:18;18.1;74
79467;SHT30;68933;49.726;9.226;2023-09-19T00:39:31;18.1;74
79467;SHT30;68933;49.726;9.226;2023-09-19T00:41:44;18.1;74
79467;SHT30;68933;49.726;9.226;2023-09-19T00:43:57;18.1;74
79467;SHT30;68933;49.726;9.226;2023-09-19T00:46:10;18;74
79467;SHT30;68933;49.726;9.226;2023-09-19T00:48:24;18;74
79467;SHT30;68933;49.726;9.226;2023-09-19T00:50:36;18;74
79467;SHT30;68933;49.726;9.226;2023-09-19T00:52:50;18;74
79467;SHT30;68933;49.726;9.226;2023-09-19T00:55:02;18;74
79467;SHT30;68933;49.726;9.226;2023-09-19T00:57:15;18;74
79467;SHT30;68933;49.726;9.226;2023-09-19T00:59:28;18;74
79467;SHT30;68933;49.726;9.226;2023-09-19T01:01:41;18;74
79467;SHT30;68933;49.726;9.226;2023-09-19T01:03:54;18;74
79467;SHT30;68933;49.726;9.226;2023-09-19T01:06:07;18;74
79467;SHT30;68933;49.726;9.226;2023-09-19T01:08:20;18;74
79467;SHT30;68933;49.726;9.226;2023-09-19T01:10:33;18;75
79467;SHT30;68933;49.726;9.226;2023-09-19T01:12:48;18;75
79467;SHT30;68933;49.726;9.226;2023-09-19T01:15:01;18;75
79467;SHT30;68933;49.726;9.226;2023-09-19T01:17:14;18;75
79467;SHT30;68933;49.726;9.226;2023-09-19T01:21:41;18.1;75
79467;SHT30;68933;49.726;9.226;2023-09-19T01:24:03;18.1;75
79467;SHT30;68933;49.726;9.226;2023-09-19T01:26:05;18.1;75
79467;SHT30;68933;49.726;9.226;2023-09-19T01:28:20;18.1;75
79467;SHT30;68933;49.726;9.226;2023-09-19T01:30:31;18.1;75
79467;SHT30;68933;49.726;9.226;2023-09-19T01:32:43;18.1;75
79467;SHT30;68933;49.726;9.226;2023-09-19T01:34:56;18.1;75
79467;SHT30;68933;49.726;9.226;2023-09-19T01:37:09;18.1;75
79467;SHT30;68933;49.726;9.226;2023-09-19T01:39:22;18.1;75
79467;SHT30;68933;49.726;9.226;2023-09-19T01:41:39;18.2;75
79467;SHT30;68933;49.726;9.226;2023-09-19T01:43:48;18.2;75
79467;SHT30;68933;49.726;9.226;2023-09-19T01:46:04;18.2;75
79467;SHT30;68933;49.726;9.226;2023-09-19T01:48:17;18.2;75
79467;SHT30;68933;49.726;9.226;2023-09-19T01:50:29;18.2;75
79467;SHT30;68933;49.726;9.226;2023-09-19T01:52:43;18.3;75
79467;SHT30;68933;49.726;9.226;2023-09-19T01:54:55;18.3;75
79467;SHT30;68933;49.726;9.226;2023-09-19T01:57:08;18.3;75
79467;SHT30;68933;49.726;9.226;2023-09-19T01:59:21;18.3;75
79467;SHT30;68933;49.726;9.226;2023-09-19T02:01:33;18.4;74
79467;SHT30;68933;49.726;9.226;2023-09-19T02:03:45;18.4;74
79467;SHT30;68933;49.726;9.226;2023-09-19T02:05:58;18.4;74
79467;SHT30;68933;49.726;9.226;2023-09-19T02:08:11;18.4;75
79467;SHT30;68933;49.726;9.226;2023-09-19T02:10:24;18.4;75
79467;SHT30;68933;49.726;9.226;2023-09-19T02:12:37;18.4;75
79467;SHT30;68933;49.726;9.226;2023-09-19T02:14:50;18.4;75
79467;SHT30;68933;49.726;9.226;2023-09-19T02:17:03;18.4;76
79467;SHT30;68933;49.726;9.226;2023-09-19T02:19:16;18.4;76
79467;SHT30;68933;49.726;9.226;2023-09-19T02:21:29;18.3;76
79467;SHT30;68933;49.726;9.226;2023-09-19T02:23:42;18.3;76
79467;SHT30;68933;49.726;9.226;2023-09-19T02:25:55;18.3;78
79467;SHT30;68933;49.726;9.226;2023-09-19T02:28:08;18.3;78
79467;SHT30;68933;49.726;9.226;2023-09-19T02:30:21;18.4;77
79467;SHT30;68933;49.726;9.226;2023-09-19T02:32:34;18.4;77
79467;SHT30;68933;49.726;9.226;2023-09-19T02:34:47;18.4;77
79467;SHT30;68933;49.726;9.226;2023-09-19T02:37:00;18.4;77
79467;SHT30;68933;49.726;9.226;2023-09-19T02:39:13;18.4;77
79467;SHT30;68933;49.726;9.226;2023-09-19T02:41:26;18.4;77
79467;SHT30;68933;49.726;9.226;2023-09-19T02:43:39;18.4;77
79467;SHT30;68933;49.726;9.226;2023-09-19T02:45:52;18.4;77
79467;SHT30;68933;49.726;9.226;2023-09-19T02:48:05;18.4;77
79467;SHT30;68933;49.726;9.226;2023-09-19T02:50:18;18.4;77
79467;SHT30;68933;49.726;9.226;2023-09-19T02:52:31;18.4;77
79467;SHT30;68933;49.726;9.226;2023-09-19T02:54:44;18.4;77
79467;SHT30;68933;49.726;9.226;2023-09-19T02:56:57;18.4;77
79467;SHT30;68933;49.726;9.226;2023-09-19T02:59:10;18.4;77
79467;SHT30;68933;49.726;9.226;2023-09-19T03:01:23;18.4;77
79467;SHT30;68933;49.726;9.226;2023-09-19T03:03:36;18.4;77
79467;SHT30;68933;49.726;9.226;2023-09-19T03:05:49;18.5;77
79467;SHT30;68933;49.726;9.226;2023-09-19T03:08:02;18.5;77
79467;SHT30;68933;49.726;9.226;2023-09-19T03:10:15;18.5;77
79467;SHT30;68933;49.726;9.226;2023-09-19T03:12:28;18.5;77
79467;SHT30;68933;49.726;9.226;2023-09-19T03:14:41;18.5;77
79467;SHT30;68933;49.726;9.226;2023-09-19T03:16:54;18.4;77
79467;SHT30;68933;49.726;9.226;2023-09-19T03:19:07;18.4;77
79467;SHT30;68933;49.726;9.226;2023-09-19T03:21:20;18.4;77
79467;SHT30;68933;49.726;9.226;2023-09-19T03:23:33;18.4;77
79467;SHT30;68933;49.726;9.226;2023-09-19T03:25:46;18.4;77
79467;SHT30;68933;49.726;9.226;2023-09-19T03:27:59;18.4;77
79467;SHT30;68933;49.726;9.226;2023-09-19T03:30:12;18.4;77
79467;SHT30;68933;49.726;9.226;2023-09-19T03:32:25;18.3;76
79467;SHT30;68933;49.726;9.226;2023-09-19T03:34:38;18.3;76
79467;SHT30;68933;49.726;9.226;2023-09-19T03:36:51;18.3;76
79467;SHT30;68933;49.726;9.226;2023-09-19T03:39:04;18.3;76
79467;SHT30;68933;49.726;9.226;2023-09-19T03:41:17;18.3;76
79467;SHT30;68933;49.726;9.226;2023-09-19T03:43:31;18.2;76
79467;SHT30;68933;49.726;9.226;2023-09-19T03:45:43;18.2;76
79467;SHT30;68933;49.726;9.226;2023-09-19T03:47:56;18.2;76
79467;SHT30;68933;49.726;9.226;2023-09-19T03:50:09;18.2;76
79467;SHT30;68933;49.726;9.226;2023-09-19T03:52:22;18.2;76
79467;SHT30;68933;49.726;9.226;2023-09-19T03:54:35;18.2;76
79467;SHT30;68933;49.726;9.226;2023-09-19T03:56:48;18.2;76
79467;SHT30;68933;49.726;9.226;2023-09-19T03:59:01;18.2;76
79467;SHT30;68933;49.726;9.226;2023-09-19T04:01:14;18.2;76
79467;SHT30;68933;49.726;9.226;2023-09-19T04:03:27;18.1;75
79467;SHT30;68933;49.726;9.226;2023-09-19T04:05:40;18.1;75
79467;SHT30;68933;49.726;9.226;2023-09-19T04:07:53;18.1;75
79467;SHT30;68933;49.726;9.226;2023-09-19T04:10:06;18.1;75
79467;SHT30;68933;49.726;9.226;2023-09-19T04:12:19;18.1;75
79467;SHT30;68933;49.726;9.226;2023-09-19T04:14:32;18;76
79467;SHT30;68933;49.726;9.226;2023-09-19T04:16:45;18;76
79467;SHT30;68933;49.726;9.226;2023-09-19T04:18:58;18;76
79467;SHT30;68933;49.726;9.226;2023-09-19T04:21:11;18;76
79467;SHT30;68933;49.726;9.226;2023-09-19T04:23:24;18;76
79467;SHT30;68933;49.726;9.226;2023-09-19T04:25:37;17.9;76
79467;SHT30;68933;49.726;9.226;2023-09-19T04:27:50;17.9;76
79467;SHT30;68933;49.726;9.226;2023-09-19T04:30:03;17.9;76
79467;SHT30;68933;49.726;9.226;2023-09-19T04:32:16;17.9;76
79467;SHT30;68933;49.726;9.226;2023-09-19T04:34:29;17.8;76
79467;SHT30;68933;49.726;9.226;2023-09-19T04:36:42;17.8;76
79467;SHT30;68933;49.726;9.226;2023-09-19T04:38:55;17.8;76
79467;SHT30;68933;49.726;9.226;2023-09-19T04:41:08;17.8;78
79467;SHT30;68933;49.726;9.226;2023-09-19T04:43:21;17.8;78
79467;SHT30;68933;49.726;9.226;2023-09-19T04:45:34;17.7;78
79467;SHT30;68933;49.726;9.226;2023-09-19T04:47:47;17.7;78
79467;SHT30;68933;49.726;9.226;2023-09-19T04:50:00;17.6;78
79467;SHT30;68933;49.726;9.226;2023-09-19T04:52:13;17.6;78
79467;SHT30;68933;49.726;9.226;2023-09-19T04:54:26;17.6;78
79467;SHT30;68933;49.726;9.226;2023-09-19T04:56:39;17.6;78
79467;SHT30;68933;49.726;9.226;2023-09-19T04:58:52;17.6;78
79467;SHT30;68933;49.726;9.226;2023-09-19T05:01:05;17.6;78
79467;SHT30;68933;49.726;9.226;2023-09-19T05:03:18;17.6;78
79467;SHT30;68933;49.726;9.226;2023-09-19T05:05:31;17.5;78
79467;SHT30;68933;49.726;9.226;2023-09-19T05:07:44;17.5;78
79467;SHT30;68933;49.726;9.226;2023-09-19T05:09:57;17.4;78
79467;SHT30;68933;49.726;9.226;2023-09-19T05:12:10;17.4;78
79467;SHT30;68933;49.726;9.226;2023-09-19T05:14:23;17.4;78
79467;SHT30;68933;49.726;9.226;2023-09-19T05:16:36;17.3;78
79467;SHT30;68933;49.726;9.226;2023-09-19T05:18:49;17.3;78
79467;SHT30;68933;49.726;9.226;2023-09-19T05:21:02;17.3;78
79467;SHT30;68933;49.726;9.226;2023-09-19T05:23:15;17.3;78
79467;SHT30;68933;49.726;9.226;2023-09-19T05:25:28;17.2;78
79467;SHT30;68933;49.726;9.226;2023-09-19T05:27:41;17.2;78
79467;SHT30;68933;49.726;9.226;2023-09-19T05:29:54;17.2;78
79467;SHT30;68933;49.726;9.226;2023-09-19T05:32:07;17.2;78
79467;SHT30;68933;49.726;9.226;2023-09-19T05:34:20;17.2;78
79467;SHT30;68933;49.726;9.226;2023-09-19T05:36:33;17.2;78
79467;SHT30;68933;49.726;9.226;2023-09-19T05:38:46;17.2;78
79467;SHT30;68933;49.726;9.226;2023-09-19T05:40:59;17.2;78
79467;SHT30;68933;49.726;9.226;2023-09-19T05:43:13;17.2;78
79467;SHT30;68933;49.726;9.226;2023-09-19T05:45:25;17.2;78
79467;SHT30;68933;49.726;9.226;2023-09-19T05:47:38;17.2;78
79467;SHT30;68933;49.726;9.226;2023-09-19T05:49:51;17.2;78
79467;SHT30;68933;49.726;9.226;2023-09-19T05:52:04;17.2;78
79467;SHT30;68933;49.726;9.226;2023-09-19T05:54:17;17.2;78
79467;SHT30;68933;49.726;9.226;2023-09-19T05:56:30;17.2;78
79467;SHT30;68933;49.726;9.226;2023-09-19T05:58:43;17.2;78
79467;SHT30;68933;49.726;9.226;2023-09-19T06:00:56;17.2;78
79467;SHT30;68933;49.726;9.226;2023-09-19T06:03:09;17.2;78
79467;SHT30;68933;49.726;9.226;2023-09-19T06:05:22;17.3;78
79467;SHT30;68933;49.726;9.226;2023-09-19T06:07:35;17.3;78
79467;SHT30;68933;49.726;9.226;2023-09-19T06:09:48;17.2;78
79467;SHT30;68933;49.726;9.226;2023-09-19T06:12:01;17.2;78
79467;SHT30;68933;49.726;9.226;2023-09-19T06:14:14;17.2;78
79467;SHT30;68933;49.726;9.226;2023-09-19T06:16:27;17.2;78
79467;SHT30;68933;49.726;9.226;2023-09-19T06:18:40;17.2;78
79467;SHT30;68933;49.726;9.226;2023-09-19T06:20:53;17.2;78
79467;SHT30;68933;49.726;9.226;2023-09-19T06:23:06;17.2;78
79467;SHT30;68933;49.726;9.226;2023-09-19T06:25:19;17.2;78
79467;SHT30;68933;49.726;9.226;2023-09-19T06:27:32;17.2;76
79467;SHT30;68933;49.726;9.226;2023-09-19T06:29:45;17.2;76
79467;SHT30;68933;49.726;9.226;2023-09-19T06:31:58;17.3;76
79467;SHT30;68933;49.726;9.226;2023-09-19T06:34:11;17.3;76
79467;SHT30;68933;49.726;9.226;2023-09-19T06:36:24;17.3;76
79467;SHT30;68933;49.726;9.226;2023-09-19T06:38:37;17.4;76
79467;SHT30;68933;49.726;9.226;2023-09-19T06:40:50;17.4;76
79467;SHT30;68933;49.726;9.226;2023-09-19T06:43:03;17.4;76
79467;SHT30;68933;49.726;9.226;2023-09-19T06:45:16;17.4;76
79467;SHT30;68933;49.726;9.226;2023-09-19T06:47:29;17.5;76
79467;SHT30;68933;49.726;9.226;2023-09-19T06:49:42;17.5;76
79467;SHT30;68933;49.726;9.226;2023-09-19T06:51:55;17.5;76
79467;SHT30;68933;49.726;9.226;2023-09-19T06:54:08;17.6;75
79467;SHT30;68933;49.726;9.226;2023-09-19T06:56:21;17.6;75
79467;SHT30;68933;49.726;9.226;2023-09-19T06:58:34;17.7;75
79467;SHT30;68933;49.726;9.226;2023-09-19T07:00:47;17.7;75
79467;SHT30;68933;49.726;9.226;2023-09-19T07:03:01;17.7;74
79467;SHT30;68933;49.726;9.226;2023-09-19T07:05:13;17.7;74
79467;SHT30;68933;49.726;9.226;2023-09-19T07:07:26;17.7;74
79467;SHT30;68933;49.726;9.226;2023-09-19T07:09:39;17.8;74
79467;SHT30;68933;49.726;9.226;2023-09-19T07:11:52;17.8;74
79467;SHT30;68933;49.726;9.226;2023-09-19T07:14:05;18;72
79467;SHT30;68933;49.726;9.226;2023-09-19T07:16:18;18;72
79467;SHT30;68933;49.726;9.226;2023-09-19T07:18:31;18.1;72
79467;SHT30;68933;49.726;9.226;2023-09-19T07:20:44;18.1;72
79467;SHT30;68933;49.726;9.226;2023-09-19T07:22:57;18.1;72
79467;SHT30;68933;49.726;9.226;2023-09-19T07:25:10;18.2;71
79467;SHT30;68933;49.726;9.226;2023-09-19T07:27:23;18.2;71
79467;SHT30;68933;49.726;9.226;2023-09-19T07:29:36;18.2;71
79467;SHT30;68933;49.726;9.226;2023-09-19T07:31:49;18.2;71
79467;SHT30;68933;49.726;9.226;2023-09-19T07:34:02;18.3;71
79467;SHT30;68933;49.726;9.226;2023-09-19T07:36:15;18.3;71
79467;SHT30;68933;49.726;9.226;2023-09-19T07:38:28;18.3;71
79467;SHT30;68933;49.726;9.226;2023-09-19T07:40:41;18.4;70
79467;SHT30;68933;49.726;9.226;2023-09-19T07:42:54;18.4;70
79467;SHT30;68933;49.726;9.226;2023-09-19T07:45:07;18.5;70
79467;SHT30;68933;49.726;9.226;2023-09-19T07:47:20;18.5;70
79467;SHT30;68933;49.726;9.226;2023-09-19T07:49:33;18.6;70
79467;SHT30;68933;49.726;9.226;2023-09-19T07:51:46;18.6;70
79467;SHT30;68933;49.726;9.226;2023-09-19T07:53:59;18.6;70
79467;SHT30;68933;49.726;9.226;2023-09-19T07:56:12;18.5;68
79467;SHT30;68933;49.726;9.226;2023-09-19T07:58:25;18.5;68
79467;SHT30;68933;49.726;9.226;2023-09-19T08:00:38;18.6;68
79467;SHT30;68933;49.726;9.226;2023-09-19T08:02:51;18.6;68
79467;SHT30;68933;49.726;9.226;2023-09-19T08:05:04;18.7;68
79467;SHT30;68933;49.726;9.226;2023-09-19T08:07:17;18.7;68
79467;SHT30;68933;49.726;9.226;2023-09-19T08:09:30;18.8;68
79467;SHT30;68933;49.726;9.226;2023-09-19T08:11:43;18.8;68
79467;SHT30;68933;49.726;9.226;2023-09-19T08:13:56;18.8;68
79467;SHT30;68933;49.726;9.226;2023-09-19T08:16:09;18.9;67
79467;SHT30;68933;49.726;9.226;2023-09-19T08:18:22;18.9;67
79467;SHT30;68933;49.726;9.226;2023-09-19T08:20:35;19;67
79467;SHT30;68933;49.726;9.226;2023-09-19T08:22:49;19;67
79467;SHT30;68933;49.726;9.226;2023-09-19T08:25:01;19;66
79467;SHT30;68933;49.726;9.226;2023-09-19T08:27:14;19;66
79467;SHT30;68933;49.726;9.226;2023-09-19T08:29:27;19.1;66
79467;SHT30;68933;49.726;9.226;2023-09-19T08:31:40;19.1;66
79467;SHT30;68933;49.726;9.226;2023-09-19T08:33:53;19.3;66
79467;SHT30;68933;49.726;9.226;2023-09-19T08:36:06;19.3;66
79467;SHT30;68933;49.726;9.226;2023-09-19T08:38:19;19.3;66
79467;SHT30;68933;49.726;9.226;2023-09-19T08:40:32;19.3;66
79467;SHT30;68933;49.726;9.226;2023-09-19T08:42:47;19.3;66
79467;SHT30;68933;49.726;9.226;2023-09-19T08:44:58;19.5;64
79467;SHT30;68933;49.726;9.226;2023-09-19T08:47:14;19.5;64
79467;SHT30;68933;49.726;9.226;2023-09-19T08:49:27;19.6;64
79467;SHT30;68933;49.726;9.226;2023-09-19T08:51:40;19.6;64
79467;SHT30;68933;49.726;9.226;2023-09-19T08:53:51;19.8;64
79467;SHT30;68933;49.726;9.226;2023-09-19T08:56:03;19.8;64
79467;SHT30;68933;49.726;9.226;2023-09-19T08:58:16;19.9;63
79467;SHT30;68933;49.726;9.226;2023-09-19T09:00:29;19.9;63
79467;SHT30;68933;49.726;9.226;2023-09-19T09:02:43;20;63
79467;SHT30;68933;49.726;9.226;2023-09-19T09:04:55;20;63
79467;SHT30;68933;49.726;9.226;2023-09-19T09:07:10;20;63
79467;SHT30;68933;49.726;9.226;2023-09-19T09:09:21;20.2;62
79467;SHT30;68933;49.726;9.226;2023-09-19T09:11:34;20.2;62
79467;SHT30;68933;49.726;9.226;2023-09-19T09:13:47;20.4;62
79467;SHT30;68933;49.726;9.226;2023-09-19T09:16:00;20.4;62
79467;SHT30;68933;49.726;9.226;2023-09-19T09:18:13;20.4;62
79467;SHT30;68933;49.726;9.226;2023-09-19T09:20:26;20.5;60
79467;SHT30;68933;49.726;9.226;2023-09-19T09:22:41;20.5;60
79467;SHT30;68933;49.726;9.226;2023-09-19T09:24:52;20.7;59
79467;SHT30;68933;49.726;9.226;2023-09-19T09:27:06;20.7;59
79467;SHT30;68933;49.726;9.226;2023-09-19T09:29:20;20.7;59
79467;SHT30;68933;49.726;9.226;2023-09-19T09:31:31;20.9;59
79467;SHT30;68933;49.726;9.226;2023-09-19T09:33:51;20.9;59
79467;SHT30;68933;49.726;9.226;2023-09-19T09:35:58;21.1;56
79467;SHT30;68933;49.726;9.226;2023-09-19T09:38:10;21.1;56
79467;SHT30;68933;49.726;9.226;2023-09-19T09:40:23;21.1;56
79467;SHT30;68933;49.726;9.226;2023-09-19T09:42:36;21.1;55
79467;SHT30;68933;49.726;9.226;2023-09-19T09:44:50;21.1;55
79467;SHT30;68933;49.726;9.226;2023-09-19T09:47:02;21.2;56
79467;SHT30;68933;49.726;9.226;2023-09-19T09:49:21;21.2;56
79467;SHT30;68933;49.726;9.226;2023-09-19T09:51:29;21.2;56
79467;SHT30;68933;49.726;9.226;2023-09-19T09:53:41;21.3;54
79467;SHT30;68933;49.726;9.226;2023-09-19T09:55:58;21.3;54
79467;SHT30;68933;49.726;9.226;2023-09-19T09:58:23;21.4;52
79467;SHT30;68933;49.726;9.226;2023-09-19T10:00:20;21.4;52
79467;SHT30;68933;49.726;9.226;2023-09-19T10:02:34;21.7;52
79467;SHT30;68933;49.726;9.226;2023-09-19T10:04:46;21.7;52
79467;SHT30;68933;49.726;9.226;2023-09-19T10:06:59;21.7;52
79467;SHT30;68933;49.726;9.226;2023-09-19T10:09:12;21.9;50
79467;SHT30;68933;49.726;9.226;2023-09-19T10:11:25;21.9;50
79467;SHT30;68933;49.726;9.226;2023-09-19T10:13:38;22;50
79467;SHT30;68933;49.726;9.226;2023-09-19T10:15:51;22;50
79467;SHT30;68933;49.726;9.226;2023-09-19T10:18:04;22;50
79467;SHT30;68933;49.726;9.226;2023-09-19T10:20:17;22.2;49
79467;SHT30;68933;49.726;9.226;2023-09-19T10:22:30;22.2;49
79467;SHT30;68933;49.726;9.226;2023-09-19T10:24:43;22.4;49
79467;SHT30;68933;49.726;9.226;2023-09-19T10:26:56;22.4;49
79467;SHT30;68933;49.726;9.226;2023-09-19T10:29:09;22.6;48
79467;SHT30;68933;49.726;9.226;2023-09-19T10:31:22;22.6;48
79467;SHT30;68933;49.726;9.226;2023-09-19T10:33:36;22.6;48
79467;SHT30;68933;49.726;9.226;2023-09-19T10:35:49;22.8;47
79467;SHT30;68933;49.726;9.226;2023-09-19T10:38:01;22.8;47
79467;SHT30;68933;49.726;9.226;2023-09-19T10:40:14;22.9;46
79467;SHT30;68933;49.726;9.226;2023-09-19T10:42:27;22.9;46
79467;SHT30;68933;49.726;9.226;2023-09-19T10:44:40;23;46
79467;SHT30;68933;49.726;9.226;2023-09-19T10:46:53;23;46
79467;SHT30;68933;49.726;9.226;2023-09-19T10:49:06;23;46
79467;SHT30;68933;49.726;9.226;2023-09-19T10:51:19;23.1;46
79467;SHT30;68933;49.726;9.226;2023-09-19T10:53:39;23.1;46
79467;SHT30;68933;49.726;9.226;2023-09-19T10:55:49;23.3;46
79467;SHT30;68933;49.726;9.226;2023-09-19T10:57:58;23.3;46
79467;SHT30;68933;49.726;9.226;2023-09-19T11:00:11;23.4;46
79467;SHT30;68933;49.726;9.226;2023-09-19T11:02:24;23.4;46
79467;SHT30;68933;49.726;9.226;2023-09-19T11:04:37;23.4;46
79467;SHT30;68933;49.726;9.226;2023-09-19T11:07:06;23.4;46
79467;SHT30;68933;49.726;9.226;2023-09-19T11:09:03;23.4;46
79467;SHT30;68933;49.726;9.226;2023-09-19T11:11:38;23.3;45
79467;SHT30;68933;49.726;9.226;2023-09-19T11:13:29;23.3;45
79467;SHT30;68933;49.726;9.226;2023-09-19T11:17:55;23.4;46
79467;SHT30;68933;49.726;9.226;2023-09-19T11:20:15;23.5;45
79467;SHT30;68933;49.726;9.226;2023-09-19T11:22:21;23.5;45
79467;SHT30;68933;49.726;9.226;2023-09-19T11:24:34;23.5;45
79467;SHT30;68933;49.726;9.226;2023-09-19T11:26:47;23.8;45
79467;SHT30;68933;49.726;9.226;2023-09-19T11:29:24;23.8;45
79467;SHT30;68933;49.726;9.226;2023-09-19T11:31:45;24.1;45
79467;SHT30;68933;49.726;9.226;2023-09-19T11:33:27;24.1;45
79467;SHT30;68933;49.726;9.226;2023-09-19T11:35:58;24.5;43
79467;SHT30;68933;49.726;9.226;2023-09-19T11:37:59;24.5;43
79467;SHT30;68933;49.726;9.226;2023-09-19T11:40:05;24.8;43
79467;SHT30;68933;49.726;9.226;2023-09-19T11:42:40;24.8;43
79467;SHT30;68933;49.726;9.226;2023-09-19T11:44:32;24.8;43
79467;SHT30;68933;49.726;9.226;2023-09-19T11:46:51;24.7;42
79467;SHT30;68933;49.726;9.226;2023-09-19T11:49:04;24.7;42
79467;SHT30;68933;49.726;9.226;2023-09-19T11:51:11;24.4;42
79467;SHT30;68933;49.726;9.226;2023-09-19T11:53:23;24.4;42
79467;SHT30;68933;49.726;9.226;2023-09-19T11:55:36;24.5;42
79467;SHT30;68933;49.726;9.226;2023-09-19T11:57:49;24.5;42
79467;SHT30;68933;49.726;9.226;2023-09-19T12:00:02;24.6;43
79467;SHT30;68933;49.726;9.226;2023-09-19T12:02:17;24.6;43
79467;SHT30;68933;49.726;9.226;2023-09-19T12:04:33;24.8;42
79467;SHT30;68933;49.726;9.226;2023-09-19T12:06:41;24.8;42
79467;SHT30;68933;49.726;9.226;2023-09-19T12:08:54;24.8;42
79467;SHT30;68933;49.726;9.226;2023-09-19T12:11:11;25;42
79467;SHT30;68933;49.726;9.226;2023-09-19T12:13:20;25;42
79467;SHT30;68933;49.726;9.226;2023-09-19T12:15:33;25;41
79467;SHT30;68933;49.726;9.226;2023-09-19T12:17:46;25;41
79467;SHT30;68933;49.726;9.226;2023-09-19T12:19:59;24.9;42
79467;SHT30;68933;49.726;9.226;2023-09-19T12:22:12;24.9;42
79467;SHT30;68933;49.726;9.226;2023-09-19T12:24:26;24.8;41
79467;SHT30;68933;49.726;9.226;2023-09-19T12:26:39;24.8;41
79467;SHT30;68933;49.726;9.226;2023-09-19T12:28:51;24.8;41
79467;SHT30;68933;49.726;9.226;2023-09-19T12:31:06;24.8;41
79467;SHT30;68933;49.726;9.226;2023-09-19T12:33:17;24.8;41
79467;SHT30;68933;49.726;9.226;2023-09-19T12:35:31;24.8;41
79467;SHT30;68933;49.726;9.226;2023-09-19T12:37:43;24.8;41
79467;SHT30;68933;49.726;9.226;2023-09-19T12:40:03;24.7;39
79467;SHT30;68933;49.726;9.226;2023-09-19T12:42:10;24.7;39
79467;SHT30;68933;49.726;9.226;2023-09-19T12:44:22;24.7;39
79467;SHT30;68933;49.726;9.226;2023-09-19T12:46:36;24.7;39
79467;SHT30;68933;49.726;9.226;2023-09-19T12:48:48;24.7;39
79467;SHT30;68933;49.726;9.226;2023-09-19T12:51:02;25;41
79467;SHT30;68933;49.726;9.226;2023-09-19T12:53:24;25;41
79467;SHT30;68933;49.726;9.226;2023-09-19T12:55:28;25.1;39
79467;SHT30;68933;49.726;9.226;2023-09-19T12:57:40;25.1;39
79467;SHT30;68933;49.726;9.226;2023-09-19T12:59:53;25.3;39
79467;SHT30;68933;49.726;9.226;2023-09-19T13:02:06;25.3;39
79467;SHT30;68933;49.726;9.226;2023-09-19T13:04:20;25.3;39
79467;SHT30;68933;49.726;9.226;2023-09-19T13:06:36;25.5;39
79467;SHT30;68933;49.726;9.226;2023-09-19T13:08:45;25.5;39
79467;SHT30;68933;49.726;9.226;2023-09-19T13:11:01;25.6;39
79467;SHT30;68933;49.726;9.226;2023-09-19T13:13:27;25.6;39
79467;SHT30;68933;49.726;9.226;2023-09-19T13:15:28;25.8;38
79467;SHT30;68933;49.726;9.226;2023-09-19T13:17:45;25.8;38
79467;SHT30;68933;49.726;9.226;2023-09-19T13:19:50;25.9;38
79467;SHT30;68933;49.726;9.226;2023-09-19T13:22:03;25.9;38
79467;SHT30;68933;49.726;9.226;2023-09-19T13:24:18;25.9;38
79467;SHT30;68933;49.726;9.226;2023-09-19T13:26:29;25.8;38
79467;SHT30;68933;49.726;9.226;2023-09-19T13:28:42;25.8;38
79467;SHT30;68933;49.726;9.226;2023-09-19T13:30:55;25.9;38
79467;SHT30;68933;49.726;9.226;2023-09-19T13:33:09;25.9;38
79467;SHT30;68933;49.726;9.226;2023-09-19T13:35:21;26;38
79467;SHT30;68933;49.726;9.226;2023-09-19T13:37:34;26;38
79467;SHT30;68933;49.726;9.226;2023-09-19T13:39:47;26.4;38
79467;SHT30;68933;49.726;9.226;2023-09-19T13:42:00;26.4;38
79467;SHT30;68933;49.726;9.226;2023-09-19T13:44:13;26.8;37
79467;SHT30;68933;49.726;9.226;2023-09-19T13:46:26;26.8;37
79467;SHT30;68933;49.726;9.226;2023-09-19T13:48:39;26.8;37
79467;SHT30;68933;49.726;9.226;2023-09-19T13:50:52;26.8;37
79467;SHT30;68933;49.726;9.226;2023-09-19T13:53:05;26.8;37
79467;SHT30;68933;49.726;9.226;2023-09-19T13:55:18;26.5;37
79467;SHT30;68933;49.726;9.226;2023-09-19T13:57:22;26.5;37
79467;SHT30;68933;49.726;9.226;2023-09-19T13:59:34;26.4;37
79467;SHT30;68933;49.726;9.226;2023-09-19T14:01:47;26.4;37
79467;SHT30;68933;49.726;9.226;2023-09-19T14:04:00;26.2;35
79467;SHT30;68933;49.726;9.226;2023-09-19T14:06:13;26.2;35
79467;SHT30;68933;49.726;9.226;2023-09-19T14:08:26;26.2;35
79467;SHT30;68933;49.726;9.226;2023-09-19T14:10:39;26.1;37
79467;SHT30;68933;49.726;9.226;2023-09-19T14:12:52;26.1;37
79467;SHT30;68933;49.726;9.226;2023-09-19T14:15:06;26.1;37
79467;SHT30;68933;49.726;9.226;2023-09-19T14:17:18;26.1;37
79467;SHT30;68933;49.726;9.226;2023-09-19T14:19:31;26.1;37
79467;SHT30;68933;49.726;9.226;2023-09-19T14:21:44;26.1;37
79467;SHT30;68933;49.726;9.226;2023-09-19T14:23:57;26.2;37
79467;SHT30;68933;49.726;9.226;2023-09-19T14:26:10;26.2;37
79467;SHT30;68933;49.726;9.226;2023-09-19T14:28:23;26.2;37
79467;SHT30;68933;49.726;9.226;2023-09-19T14:30:36;26.2;37
79467;SHT30;68933;49.726;9.226;2023-09-19T14:32:49;26.2;37
79467;SHT30;68933;49.726;9.226;2023-09-19T14:35:02;26.3;37
79467;SHT30;68933;49.726;9.226;2023-09-19T14:37:15;26.3;37
79467;SHT30;68933;49.726;9.226;2023-09-19T14:39:28;26.3;37
79467;SHT30;68933;49.726;9.226;2023-09-19T14:41:41;26.1;37
79467;SHT30;68933;49.726;9.226;2023-09-19T14:43:54;26.1;37
79467;SHT30;68933;49.726;9.226;2023-09-19T14:46:07;26.1;38
79467;SHT30;68933;49.726;9.226;2023-09-19T14:48:20;26.1;38
79467;SHT30;68933;49.726;9.226;2023-09-19T14:50:33;26;38
79467;SHT30;68933;49.726;9.226;2023-09-19T14:52:46;26;38
79467;SHT30;68933;49.726;9.226;2023-09-19T14:54:59;26;38
79467;SHT30;68933;49.726;9.226;2023-09-19T14:57:12;26;38
79467;SHT30;68933;49.726;9.226;2023-09-19T14:59:25;26;38
79467;SHT30;68933;49.726;9.226;2023-09-19T15:01:38;25.9;38
79467;SHT30;68933;49.726;9.226;2023-09-19T15:03:51;25.9;38
79467;SHT30;68933;49.726;9.226;2023-09-19T15:06:05;25.9;38